createdAt,value
2022-10-04T00:02:46.937Z,5.70
2022-10-04T00:07:56.301Z,4.53
2022-10-04T00:13:06.069Z,4.17
2022-10-04T00:18:10.540Z,7.37
2022-10-04T00:23:30.749Z,6.00
2022-10-04T00:28:39.855Z,5.77
2022-10-04T00:33:53.520Z,6.27
2022-10-04T00:39:07.323Z,5.00
2022-10-04T00:44:23.498Z,4.77
2022-10-04T00:49:29.706Z,5.77
2022-10-04T00:55:03.138Z,4.57
2022-10-04T01:00:08.824Z,5.20
2022-10-04T01:05:22.659Z,4.43
2022-10-04T01:10:31.760Z,5.50
2022-10-04T01:15:49.280Z,4.57
2022-10-04T01:21:00.137Z,4.97
2022-10-04T01:26:04.481Z,4.40
2022-10-04T01:31:06.021Z,5.07
2022-10-04T01:36:07.817Z,4.93
2022-10-04T01:41:10.882Z,4.67
2022-10-04T01:46:16.608Z,6.53
2022-10-04T01:51:27.642Z,5.90
2022-10-04T01:56:37.895Z,6.03
2022-10-04T02:01:44.050Z,4.60
2022-10-04T02:06:46.693Z,5.50
2022-10-04T02:11:52.731Z,5.63
2022-10-04T02:16:54.519Z,4.83
2022-10-04T02:21:56.616Z,5.43
2022-10-04T02:26:58.413Z,5.80
2022-10-04T02:32:18.817Z,6.73
2022-10-04T02:37:22.824Z,4.63
2022-10-04T02:42:24.860Z,5.17
2022-10-04T02:47:30.982Z,6.50
2022-10-04T02:52:46.879Z,4.47
2022-10-04T02:57:49.994Z,5.10
2022-10-04T03:03:18.078Z,4.60
2022-10-04T03:08:20.106Z,3.90
2022-10-04T03:13:21.909Z,4.47
2022-10-04T03:18:24.030Z,5.03
2022-10-04T03:23:25.680Z,7.10
2022-10-04T03:28:28.576Z,5.13
2022-10-04T03:33:31.066Z,4.83
2022-10-04T03:38:35.009Z,6.50
2022-10-04T03:43:41.038Z,4.33
2022-10-04T03:48:50.236Z,5.33
2022-10-04T03:53:55.127Z,4.33
2022-10-04T03:58:57.369Z,5.63
2022-10-04T04:03:58.963Z,3.93
2022-10-04T04:09:01.217Z,5.90
2022-10-04T04:14:14.400Z,4.87
2022-10-04T04:19:18.483Z,5.47
2022-10-04T04:24:25.937Z,4.53
2022-10-04T04:29:36.674Z,4.10
2022-10-04T04:35:00.579Z,6.07
2022-10-04T04:40:22.636Z,5.23
2022-10-04T04:45:26.625Z,5.40
2022-10-04T04:50:36.306Z,5.10
2022-10-04T04:56:03.341Z,4.73
2022-10-04T05:01:10.726Z,5.53
2022-10-04T05:06:26.478Z,5.47
2022-10-04T05:11:33.432Z,4.83
2022-10-04T05:16:48.706Z,5.60
2022-10-04T05:21:53.210Z,5.13
2022-10-04T05:27:03.487Z,4.60
2022-10-04T05:32:30.319Z,6.60
2022-10-04T05:37:50.608Z,6.43
2022-10-04T05:42:54.328Z,4.57
2022-10-04T05:47:57.486Z,4.40
2022-10-04T05:53:17.737Z,5.07
2022-10-04T05:58:22.238Z,6.10
2022-10-04T06:03:38.825Z,4.83
2022-10-04T06:09:14.398Z,4.97
2022-10-04T06:14:30.917Z,4.40
2022-10-04T06:20:00.494Z,4.10
2022-10-04T06:25:07.334Z,5.07
2022-10-04T06:30:16.669Z,5.03
2022-10-04T06:35:49.032Z,6.07
2022-10-04T06:41:02.633Z,3.83
2022-10-04T06:46:08.121Z,5.27
2022-10-04T06:51:23.881Z,5.97
2022-10-04T06:56:48.667Z,7.13
2022-10-04T07:01:52.956Z,4.17
2022-10-04T07:07:24.387Z,4.00
2022-10-04T07:12:26.102Z,3.70
2022-10-04T07:17:36.130Z,5.83
2022-10-04T07:22:45.174Z,4.93
2022-10-04T07:28:23.900Z,3.63
2022-10-04T07:33:28.384Z,3.30
2022-10-04T07:38:32.268Z,3.30
2022-10-04T07:43:49.977Z,4.17
2022-10-04T07:48:51.732Z,5.33
2022-10-04T07:54:03.397Z,6.27
2022-10-04T07:59:18.460Z,3.73
2022-10-04T08:04:45.006Z,3.40
2022-10-04T08:09:52.531Z,4.10
2022-10-04T08:15:23.869Z,3.27
2022-10-04T08:20:36.498Z,3.97
2022-10-04T08:26:01.206Z,3.60
2022-10-04T08:31:38.872Z,4.33
2022-10-04T08:37:03.291Z,4.97
2022-10-04T08:42:18.665Z,4.43
2022-10-04T08:47:38.900Z,3.10
2022-10-04T08:52:59.150Z,3.93
2022-10-04T08:58:16.997Z,2.97
2022-10-04T09:04:01.671Z,2.53
2022-10-04T09:09:35.040Z,2.80
2022-10-04T09:15:20.741Z,2.23
2022-10-04T09:20:40.970Z,4.47
2022-10-04T09:26:16.448Z,2.63
2022-10-04T09:31:33.174Z,5.10
2022-10-04T09:37:05.785Z,2.37
2022-10-04T09:42:22.292Z,3.63
2022-10-04T09:47:41.189Z,4.00
2022-10-04T09:53:04.029Z,3.63
2022-10-04T09:58:46.211Z,4.57
2022-10-04T10:04:00.915Z,3.43
2022-10-04T10:09:13.477Z,8.50
2022-10-04T10:14:37.004Z,2.63
2022-10-04T10:20:00.313Z,3.23
2022-10-04T10:25:20.427Z,2.53
2022-10-04T10:30:32.303Z,3.00
2022-10-04T10:36:07.767Z,3.60
2022-10-04T10:41:33.987Z,2.63
2022-10-04T10:47:09.290Z,2.13
2022-10-04T10:52:22.739Z,2.87
2022-10-04T10:57:42.778Z,3.00
2022-10-04T11:02:51.555Z,2.00
2022-10-04T11:08:09.179Z,2.70
2022-10-04T11:13:34.272Z,4.83
2022-10-04T11:19:15.986Z,3.87
2022-10-04T11:24:55.248Z,3.87
2022-10-04T11:30:08.992Z,2.80
2022-10-04T11:35:36.992Z,3.03
2022-10-04T11:40:50.346Z,3.30
2022-10-04T11:46:14.210Z,3.27
2022-10-04T11:51:35.157Z,2.20
2022-10-04T11:57:04.159Z,2.40
2022-10-04T12:02:35.149Z,2.27
2022-10-04T12:07:40.106Z,3.17
2022-10-04T12:13:05.350Z,2.67
2022-10-04T12:18:30.594Z,2.23
2022-10-04T12:23:55.472Z,2.93
2022-10-04T12:29:24.851Z,2.37
2022-10-04T12:34:36.453Z,2.10
2022-10-04T12:40:09.705Z,2.83
2022-10-04T12:45:42.215Z,2.70
2022-10-04T12:50:46.278Z,2.67
2022-10-04T12:56:09.768Z,2.93
2022-10-04T13:01:47.374Z,3.50
2022-10-04T13:07:05.077Z,2.73
2022-10-04T13:12:25.078Z,2.50
2022-10-04T13:17:42.926Z,2.23
2022-10-04T13:22:56.995Z,2.23
2022-10-04T13:28:07.309Z,2.53
2022-10-04T13:33:36.385Z,2.67
2022-10-04T13:38:56.163Z,3.60
2022-10-04T13:44:27.560Z,2.70
2022-10-04T13:49:43.165Z,2.77
2022-10-04T13:55:26.556Z,2.33
2022-10-04T14:00:55.825Z,2.30
2022-10-04T14:06:12.236Z,2.40
2022-10-04T14:11:31.970Z,2.40
2022-10-04T14:16:52.132Z,2.50
2022-10-04T14:22:24.891Z,3.07
2022-10-04T14:27:32.353Z,2.37
2022-10-04T14:32:52.101Z,2.53
2022-10-04T14:38:05.315Z,2.50
2022-10-04T14:43:44.173Z,2.43
2022-10-04T14:49:27.267Z,2.10
2022-10-04T14:54:55.717Z,2.57
2022-10-04T15:00:19.178Z,2.43
2022-10-04T15:05:38.876Z,2.23
2022-10-04T15:10:52.556Z,2.40
2022-10-04T15:16:15.835Z,2.50
2022-10-04T15:21:42.399Z,2.23
2022-10-04T15:27:23.699Z,2.33
2022-10-04T15:32:35.434Z,2.83
2022-10-04T15:37:58.110Z,2.13
2022-10-04T15:43:23.868Z,2.67
2022-10-04T15:48:37.673Z,2.03
2022-10-04T15:54:01.324Z,2.03
2022-10-04T15:59:19.051Z,3.43
2022-10-04T16:04:35.712Z,3.23
2022-10-04T16:09:49.499Z,2.20
2022-10-04T16:15:32.462Z,3.80
2022-10-04T16:20:38.796Z,2.63
2022-10-04T16:25:40.590Z,3.83
2022-10-04T16:31:20.167Z,2.87
2022-10-04T16:36:26.825Z,2.10
2022-10-04T16:41:51.112Z,2.30
2022-10-04T16:46:53.970Z,2.37
2022-10-04T16:52:09.223Z,4.60
2022-10-04T16:57:22.669Z,2.40
2022-10-04T17:02:36.353Z,4.10
2022-10-04T17:07:51.119Z,4.03
2022-10-04T17:13:07.082Z,5.77
2022-10-04T17:18:30.330Z,2.90
2022-10-04T17:23:43.832Z,4.17
2022-10-04T17:29:03.936Z,2.37
2022-10-04T17:34:20.610Z,2.67
2022-10-04T17:39:48.409Z,3.27
2022-10-04T17:45:00.727Z,2.67
2022-10-04T17:50:31.687Z,3.50
2022-10-04T17:55:45.781Z,2.37
2022-10-04T18:00:58.967Z,2.80
2022-10-04T18:06:43.179Z,4.77
2022-10-04T18:11:47.029Z,2.17
2022-10-04T18:16:57.231Z,2.60
2022-10-04T18:22:15.932Z,3.40
2022-10-04T18:27:25.138Z,2.17
2022-10-04T18:32:27.145Z,2.90
2022-10-04T18:37:39.336Z,3.40
2022-10-04T18:42:43.200Z,2.20
2022-10-04T18:47:44.894Z,3.17
2022-10-04T18:53:01.365Z,2.00
2022-10-04T18:58:34.293Z,1.90
2022-10-04T19:03:47.739Z,2.07
2022-10-04T19:09:10.558Z,2.37
2022-10-04T19:14:28.070Z,2.87
2022-10-04T19:19:48.778Z,2.20
2022-10-04T19:25:30.241Z,2.27
2022-10-04T19:31:00.112Z,2.37
2022-10-04T19:36:32.690Z,2.23
2022-10-04T19:41:59.053Z,2.70
2022-10-04T19:47:23.750Z,2.60
2022-10-04T19:52:44.572Z,2.83
2022-10-04T19:58:09.907Z,5.17
2022-10-04T20:03:12.733Z,3.80
2022-10-04T20:08:16.310Z,4.57
2022-10-04T20:13:25.087Z,4.27
2022-10-04T20:18:29.695Z,5.00
2022-10-04T20:23:40.258Z,4.50
2022-10-04T20:28:43.423Z,5.53
2022-10-04T20:33:47.077Z,6.07
2022-10-04T20:38:52.639Z,4.63
2022-10-04T20:44:01.255Z,6.33
2022-10-04T20:49:03.179Z,5.40
2022-10-04T20:54:06.448Z,5.77
2022-10-04T20:59:14.761Z,5.33
2022-10-04T21:04:30.008Z,4.70
2022-10-04T21:09:33.098Z,4.43
2022-10-04T21:14:36.209Z,4.70
2022-10-04T21:19:42.906Z,5.13
2022-10-04T21:24:50.447Z,5.70
2022-10-04T21:29:53.778Z,5.33
2022-10-04T21:34:55.661Z,3.90
2022-10-04T21:39:57.931Z,3.67
2022-10-04T21:44:59.513Z,3.90
2022-10-04T21:50:01.398Z,4.40
2022-10-04T21:55:03.048Z,5.17
2022-10-04T22:00:05.825Z,3.87
2022-10-04T22:05:13.940Z,2.97
2022-10-04T22:10:15.721Z,5.03
2022-10-04T22:15:17.301Z,6.03
2022-10-04T22:20:20.639Z,3.97
2022-10-04T22:25:24.682Z,4.30
2022-10-04T22:30:28.961Z,4.70
2022-10-04T22:35:31.991Z,6.67
2022-10-04T22:40:33.627Z,3.87
2022-10-04T22:45:36.325Z,3.50
2022-10-04T22:50:38.340Z,3.20
2022-10-04T22:55:41.333Z,3.57
2022-10-04T23:00:43.946Z,3.43
2022-10-04T23:05:45.631Z,3.83
2022-10-04T23:10:47.206Z,3.40
2022-10-04T23:15:48.805Z,3.60
2022-10-04T23:20:57.993Z,3.60
2022-10-04T23:25:59.546Z,3.37
2022-10-04T23:31:07.816Z,3.60
2022-10-04T23:36:11.649Z,4.03
2022-10-04T23:41:13.271Z,4.13
2022-10-04T23:46:18.331Z,3.50
2022-10-04T23:51:20.271Z,3.83
2022-10-04T23:56:24.884Z,5.93
